Time;durP1;ratioP1;P1;durP2;ratioP2;P2;SDS_P1;SDS_P2;PMS_P1;PMS_P2;Temp;Humidity;BMP_temperature;BMP_pressure;BME280_temperature;BME280_humidity;BME280_pressure;Samples;Min_cycle;Max_cycle;Signal;HPM_P1;HPM_P2
2023/05/15 00:02:07;;;;;;;37.40;20.25;;;12.10;99.90;;;;;;5074663;28;20037;-82
2023/05/15 00:04:34;;;;;;;32.08;19.58;;;12.10;99.90;;;;;;5074589;28;20036;-82
2023/05/15 00:07:00;;;;;;;32.13;19.17;;;12.10;99.90;;;;;;5074919;28;20032;-82
2023/05/15 00:09:27;;;;;;;32.58;20.15;;;12.10;99.90;;;;;;5074444;28;20036;-82
2023/05/15 00:11:54;;;;;;;33.25;19.65;;;12.10;99.90;;;;;;5058332;28;20036;-83
2023/05/15 00:14:21;;;;;;;35.97;20.83;;;12.10;99.90;;;;;;5091242;28;20071;-82
2023/05/15 00:16:47;;;;;;;34.55;20.83;;;12.00;99.90;;;;;;5074644;28;20040;-82
2023/05/15 00:19:15;;;;;;;33.92;19.95;;;12.00;99.90;;;;;;5058107;28;20097;-82
2023/05/15 00:21:42;;;;;;;34.92;20.30;;;12.00;99.90;;;;;;5074893;28;20066;-83
2023/05/15 00:24:08;;;;;;;37.92;22.10;;;12.00;99.90;;;;;;5074050;28;20036;-82
2023/05/15 00:26:35;;;;;;;35.20;21.90;;;12.10;99.90;;;;;;5057013;28;20053;-83
2023/05/15 00:29:02;;;;;;;36.42;22.80;;;12.00;99.90;;;;;;5058051;28;20558;-82
2023/05/15 00:31:29;;;;;;;38.65;22.10;;;12.10;99.90;;;;;;5090802;28;20061;-82
2023/05/15 00:33:56;;;;;;;35.17;21.98;;;12.10;99.90;;;;;;5058111;28;20033;-83
2023/05/15 00:36:24;;;;;;;40.20;22.58;;;12.10;99.90;;;;;;5074336;28;20080;-82
2023/05/15 00:38:52;;;;;;;38.08;22.70;;;12.10;99.90;;;;;;5074588;28;20044;-82
2023/05/15 00:41:20;;;;;;;38.17;23.50;;;12.10;99.90;;;;;;5074216;28;20091;-82
2023/05/15 00:43:50;;;;;;;39.13;23.10;;;12.00;99.90;;;;;;5074246;28;20048;-82
2023/05/15 00:46:19;;;;;;;40.42;23.20;;;12.10;99.90;;;;;;5090344;28;20513;-82
2023/05/15 00:48:49;;;;;;;41.85;23.92;;;12.10;99.90;;;;;;5090711;28;20102;-83
2023/05/15 00:51:16;;;;;;;41.53;23.02;;;12.00;99.90;;;;;;5090315;28;20130;-82
2023/05/15 00:53:43;;;;;;;39.63;22.77;;;12.00;99.90;;;;;;5057634;28;20033;-82
2023/05/15 00:56:11;;;;;;;41.95;23.58;;;11.90;99.90;;;;;;5073912;28;20044;-83
2023/05/15 00:58:37;;;;;;;44.67;22.95;;;11.90;99.90;;;;;;5089978;28;20181;-82
2023/05/15 01:01:05;;;;;;;41.67;22.40;;;11.80;99.90;;;;;;5090351;28;20502;-83
2023/05/15 01:03:31;;;;;;;43.28;23.05;;;11.90;99.90;;;;;;5073532;28;20166;-82
2023/05/15 01:05:58;;;;;;;38.20;21.98;;;11.90;99.90;;;;;;5073847;28;20100;-82
2023/05/15 01:08:41;;;;;;;44.03;22.67;;;11.80;99.90;;;;;;5056811;28;20036;-83
2023/05/15 01:11:08;;;;;;;43.03;23.40;;;11.80;99.90;;;;;;5090656;28;20078;-82
2023/05/15 01:13:34;;;;;;;41.47;22.38;;;11.80;99.90;;;;;;5053463;28;20043;-83
2023/05/15 01:16:01;;;;;;;42.55;23.25;;;11.80;99.90;;;;;;5070910;28;20036;-82
2023/05/15 01:18:31;;;;;;;39.97;22.15;;;11.80;99.90;;;;;;5073880;28;20488;-83
2023/05/15 01:21:10;;;;;;;38.42;22.00;;;11.80;99.90;;;;;;5074250;28;20053;-83
2023/05/15 01:24:05;;;;;;;38.80;21.13;;;11.70;99.90;;;;;;5086469;28;20456;-83
2023/05/15 01:26:45;;;;;;;47.78;21.63;;;11.70;99.90;;;;;;5086143;28;20037;-82
2023/05/15 01:29:26;;;;;;;35.65;20.73;;;11.60;99.90;;;;;;5070544;28;20474;-83
2023/05/15 01:32:10;;;;;;;36.78;18.88;;;11.60;99.90;;;;;;5070149;28;20388;-82
2023/05/15 01:35:08;;;;;;;32.35;19.85;;;11.50;99.90;;;;;;5086211;28;20068;-83
2023/05/15 01:37:41;;;;;;;37.42;21.02;;;11.40;99.90;;;;;;5069076;28;20127;-83
2023/05/15 01:40:10;;;;;;;31.10;19.02;;;11.30;99.90;;;;;;5069813;28;20041;-82
2023/05/15 01:42:42;;;;;;;32.58;19.40;;;11.30;99.90;;;;;;5069721;28;20045;-83
2023/05/15 01:45:10;;;;;;;30.55;18.80;;;11.30;99.90;;;;;;5086468;28;20033;-83
2023/05/15 01:47:43;;;;;;;33.97;19.30;;;11.20;99.90;;;;;;5060640;28;20053;-82
2023/05/15 01:50:14;;;;;;;32.72;19.38;;;11.20;99.90;;;;;;5070156;28;20416;-83
2023/05/15 01:52:51;;;;;;;39.33;21.40;;;11.20;99.90;;;;;;5069738;28;20052;-83
2023/05/15 01:55:19;;;;;;;39.85;21.67;;;11.20;99.90;;;;;;5069328;28;20045;-82
2023/05/15 01:57:47;;;;;;;42.95;21.23;;;11.30;99.90;;;;;;5069360;28;20088;-83
2023/05/15 02:00:15;;;;;;;38.83;22.20;;;11.30;99.90;;;;;;5054571;28;20040;-82
2023/05/15 02:02:42;;;;;;;40.67;22.85;;;11.30;99.90;;;;;;5052607;28;20049;-83
2023/05/15 02:05:09;;;;;;;47.20;25.13;;;11.30;99.90;;;;;;5052935;28;20041;-82
2023/05/15 02:07:37;;;;;;;48.40;24.70;;;11.30;99.90;;;;;;5069571;28;20076;-82
2023/05/15 02:10:04;;;;;;;49.03;25.45;;;11.30;99.90;;;;;;5069766;28;20401;-82
2023/05/15 02:12:33;;;;;;;45.25;25.08;;;11.30;99.90;;;;;;5053261;28;20103;-82
2023/05/15 02:15:03;;;;;;;47.03;24.73;;;11.30;99.90;;;;;;5053140;28;20037;-82
2023/05/15 02:17:31;;;;;;;41.55;23.85;;;11.30;99.90;;;;;;5069526;28;20037;-83
2023/05/15 02:19:57;;;;;;;43.08;24.05;;;11.30;99.90;;;;;;5052872;28;20037;-82
2023/05/15 02:22:24;;;;;;;44.20;24.65;;;11.30;99.90;;;;;;5052918;28;20131;-83
2023/05/15 02:24:51;;;;;;;43.60;23.13;;;11.30;99.90;;;;;;5053403;28;20493;-83
2023/05/15 02:27:26;;;;;;;41.15;24.48;;;11.20;99.90;;;;;;5089640;28;20036;-83
2023/05/15 02:30:05;;;;;;;44.05;23.65;;;11.20;99.90;;;;;;5084308;28;20497;-84
2023/05/15 02:32:46;;;;;;;43.65;24.73;;;11.20;99.90;;;;;;5076556;28;20037;-83
2023/05/15 02:35:36;;;;;;;42.65;23.88;;;11.10;99.90;;;;;;5069130;28;20405;-84
2023/05/15 02:38:08;;;;;;;44.08;24.30;;;11.10;99.90;;;;;;5069253;28;20052;-83
2023/05/15 02:40:36;;;;;;;47.40;25.75;;;11.10;99.90;;;;;;5086102;28;20052;-83
2023/05/15 02:43:04;;;;;;;49.17;24.88;;;11.00;99.90;;;;;;5086662;28;20109;-84
2023/05/15 02:45:32;;;;;;;46.38;25.92;;;11.00;99.90;;;;;;5088767;28;20049;-83
2023/05/15 02:48:00;;;;;;;49.47;24.92;;;11.00;99.90;;;;;;5073008;28;20040;-83
2023/05/15 02:50:27;;;;;;;48.20;24.10;;;11.00;99.90;;;;;;5076136;28;20041;-83
2023/05/15 02:53:04;;;;;;;46.67;24.60;;;11.00;99.90;;;;;;5092467;28;20040;-84
2023/05/15 02:55:32;;;;;;;48.53;24.23;;;11.00;99.90;;;;;;5076248;28;20049;-83
2023/05/15 02:57:58;;;;;;;47.15;24.00;;;11.00;99.90;;;;;;5059539;28;20051;-84
2023/05/15 03:00:25;;;;;;;46.20;23.88;;;10.90;99.90;;;;;;5089202;28;20041;-84
2023/05/15 03:02:52;;;;;;;46.47;23.60;;;10.90;99.90;;;;;;5039787;28;20045;-83
2023/05/15 03:05:19;;;;;;;48.28;24.00;;;10.90;99.90;;;;;;5072285;28;20037;-83
2023/05/15 03:07:46;;;;;;;47.67;24.73;;;10.90;99.90;;;;;;5056114;28;20041;-84
2023/05/15 03:10:12;;;;;;;48.03;24.98;;;10.90;99.90;;;;;;5055899;28;20099;-83
2023/05/15 03:12:39;;;;;;;52.33;25.63;;;10.90;99.90;;;;;;5039704;28;20076;-83
2023/05/15 03:15:06;;;;;;;50.08;25.17;;;10.90;99.90;;;;;;5039664;28;20040;-83
2023/05/15 03:17:33;;;;;;;48.20;24.70;;;10.90;99.90;;;;;;5072605;28;20757;-83
2023/05/15 03:20:00;;;;;;;54.15;26.05;;;10.90;99.90;;;;;;5055608;28;20052;-83
2023/05/15 03:22:26;;;;;;;50.95;25.52;;;10.90;99.90;;;;;;5075402;28;20393;-83
2023/05/15 03:24:53;;;;;;;50.28;25.33;;;10.90;99.90;;;;;;5058685;28;20047;-83
2023/05/15 03:27:20;;;;;;;46.17;23.52;;;10.90;99.90;;;;;;5059198;28;20087;-84
2023/05/15 03:29:49;;;;;;;50.55;24.55;;;11.00;99.90;;;;;;5058835;28;20106;-83
2023/05/15 03:32:16;;;;;;;40.08;21.55;;;11.00;99.90;;;;;;5075775;28;20480;-83
2023/05/15 03:34:43;;;;;;;43.78;23.25;;;11.00;99.90;;;;;;5058913;28;20040;-83
2023/05/15 03:37:10;;;;;;;41.47;21.60;;;11.00;99.90;;;;;;5076009;28;20041;-84
2023/05/15 03:39:37;;;;;;;39.78;21.90;;;10.90;99.90;;;;;;5108671;28;20048;-83
2023/05/15 03:42:03;;;;;;;42.65;22.58;;;10.90;99.90;;;;;;5091021;28;20087;-83
2023/05/15 03:44:30;;;;;;;41.08;20.98;;;10.80;99.90;;;;;;5058011;28;20045;-83
2023/05/15 03:46:57;;;;;;;38.63;22.52;;;10.80;99.90;;;;;;5057664;28;20049;-83
2023/05/15 03:49:24;;;;;;;39.22;21.60;;;10.80;99.90;;;;;;5058227;28;20137;-83
2023/05/15 03:51:50;;;;;;;60.78;22.35;;;10.70;99.90;;;;;;5074037;28;20119;-83
2023/05/15 03:54:17;;;;;;;42.60;21.65;;;10.70;99.90;;;;;;5075157;28;20397;-84
2023/05/15 03:56:44;;;;;;;40.75;20.55;;;10.70;99.90;;;;;;5071698;28;20040;-84
2023/05/15 03:59:11;;;;;;;36.20;19.48;;;10.80;99.90;;;;;;5054844;28;20128;-84
2023/05/15 04:01:37;;;;;;;39.70;19.90;;;10.70;99.90;;;;;;5038565;28;20037;-83
2023/05/15 04:04:04;;;;;;;35.55;17.80;;;10.70;99.90;;;;;;5038253;28;20040;-83
2023/05/15 04:06:31;;;;;;;49.55;16.70;;;10.70;99.90;;;;;;5075933;28;20509;-83
2023/05/15 04:08:57;;;;;;;28.58;15.93;;;10.60;99.90;;;;;;5057901;28;20028;-84
2023/05/15 04:11:25;;;;;;;32.10;16.20;;;10.60;99.90;;;;;;5075185;28;20039;-83
2023/05/15 04:13:51;;;;;;;30.73;16.05;;;10.50;99.90;;;;;;5074441;28;20127;-83
2023/05/15 04:16:18;;;;;;;31.98;16.40;;;10.50;99.90;;;;;;5074590;28;20136;-84
2023/05/15 04:18:45;;;;;;;29.75;16.17;;;10.50;99.90;;;;;;5074907;28;20101;-83
2023/05/15 04:21:11;;;;;;;41.38;17.48;;;10.50;99.90;;;;;;5074322;28;20042;-83
2023/05/15 04:23:40;;;;;;;31.83;18.45;;;10.50;99.90;;;;;;5058033;28;20044;-84
2023/05/15 04:26:07;;;;;;;34.67;16.98;;;10.40;99.90;;;;;;5058137;28;20044;-83
2023/05/15 04:28:34;;;;;;;33.97;17.65;;;10.40;99.90;;;;;;5073967;28;20033;-83
2023/05/15 04:31:00;;;;;;;36.17;19.42;;;10.40;99.90;;;;;;5073913;28;20071;-83
2023/05/15 04:33:27;;;;;;;55.08;18.38;;;10.40;99.90;;;;;;5057544;28;20050;-83
2023/05/15 04:35:54;;;;;;;30.25;18.25;;;10.40;99.90;;;;;;5057512;28;20040;-83
2023/05/15 04:38:21;;;;;;;40.30;18.27;;;10.40;99.90;;;;;;5057704;28;20045;-84
2023/05/15 04:40:48;;;;;;;36.17;19.50;;;10.40;99.90;;;;;;5057395;28;20040;-83
2023/05/15 04:43:15;;;;;;;31.98;18.25;;;10.40;99.90;;;;;;5090209;28;20181;-83
2023/05/15 04:45:41;;;;;;;36.75;18.02;;;10.30;99.90;;;;;;5056919;28;20131;-83
2023/05/15 04:48:08;;;;;;;32.83;18.77;;;10.30;99.90;;;;;;5056665;28;20102;-84
2023/05/15 04:50:35;;;;;;;48.13;18.92;;;10.30;99.90;;;;;;5057574;28;20511;-84
2023/05/15 04:53:02;;;;;;;58.20;18.23;;;10.30;99.90;;;;;;5057000;28;20409;-84
2023/05/15 04:55:29;;;;;;;37.25;18.65;;;10.30;99.90;;;;;;5057224;28;20048;-84
2023/05/15 04:57:56;;;;;;;33.65;18.45;;;10.30;99.90;;;;;;5055569;28;20841;-83
2023/05/15 05:00:22;;;;;;;37.83;17.10;;;10.40;99.90;;;;;;5070134;28;20043;-84
2023/05/15 05:02:49;;;;;;;37.83;18.23;;;10.40;99.90;;;;;;5037126;28;20102;-84
2023/05/15 05:05:16;;;;;;;29.73;16.13;;;10.30;99.90;;;;;;5037364;28;20044;-84
2023/05/15 05:07:45;;;;;;;28.52;15.15;;;10.40;99.90;;;;;;5053824;28;20037;-83
2023/05/15 05:10:12;;;;;;;32.55;17.75;;;10.40;99.90;;;;;;5053902;28;20047;-84
2023/05/15 05:12:39;;;;;;;31.05;16.33;;;10.40;99.90;;;;;;5089360;28;20540;-84
2023/05/15 05:15:06;;;;;;;27.30;15.70;;;10.40;99.90;;;;;;5056695;28;20123;-84
2023/05/15 05:17:33;;;;;;;31.10;16.15;;;10.30;99.90;;;;;;5073532;28;20405;-84
2023/05/15 05:19:59;;;;;;;29.85;15.30;;;10.40;99.90;;;;;;5056773;28;20040;-84
2023/05/15 05:22:26;;;;;;;31.38;16.48;;;10.40;99.90;;;;;;5073342;28;20119;-84
2023/05/15 05:24:53;;;;;;;30.45;15.30;;;10.40;99.90;;;;;;5074143;28;20040;-84
2023/05/15 05:27:20;;;;;;;33.15;16.17;;;10.30;99.90;;;;;;5089428;28;20135;-84
2023/05/15 05:29:47;;;;;;;30.58;15.85;;;10.30;99.90;;;;;;5073700;28;20028;-83
2023/05/15 05:32:14;;;;;;;35.70;16.35;;;10.30;99.90;;;;;;5058902;28;20067;-84
2023/05/15 05:34:40;;;;;;;31.65;15.63;;;10.30;99.90;;;;;;5077685;28;20036;-84
2023/05/15 05:37:07;;;;;;;31.60;17.10;;;10.40;99.90;;;;;;5056016;28;20496;-84
2023/05/15 05:39:34;;;;;;;34.28;16.45;;;10.40;99.90;;;;;;5071252;28;20044;-84
2023/05/15 05:42:00;;;;;;;30.25;15.38;;;10.40;99.90;;;;;;5036790;28;20037;-84
2023/05/15 05:44:27;;;;;;;28.08;15.43;;;10.40;99.90;;;;;;5036611;28;20041;-84
2023/05/15 05:46:54;;;;;;;25.33;13.95;;;10.30;99.90;;;;;;5036917;28;20650;-84
2023/05/15 05:49:20;;;;;;;25.95;14.38;;;10.40;99.90;;;;;;5036576;28;20047;-83
2023/05/15 05:51:47;;;;;;;26.23;14.88;;;10.40;99.90;;;;;;5053785;28;20040;-84
2023/05/15 05:54:14;;;;;;;33.78;16.00;;;10.30;99.90;;;;;;5072969;28;20040;-84
2023/05/15 05:56:41;;;;;;;26.85;15.27;;;10.40;99.90;;;;;;5056891;28;20043;-84
2023/05/15 05:59:08;;;;;;;30.75;17.10;;;10.30;99.90;;;;;;5056696;28;20131;-83
2023/05/15 06:01:35;;;;;;;31.85;17.48;;;10.40;99.90;;;;;;5056785;28;20033;-84
2023/05/15 06:04:02;;;;;;;34.08;18.10;;;10.40;99.90;;;;;;5056699;28;20044;-83
2023/05/15 06:06:29;;;;;;;32.55;18.08;;;10.50;99.90;;;;;;5056413;28;20037;-83
2023/05/15 06:08:56;;;;;;;31.05;17.63;;;10.40;99.90;;;;;;5073063;28;20132;-83
2023/05/15 06:11:22;;;;;;;31.92;18.65;;;10.50;99.90;;;;;;5055915;28;20041;-83
2023/05/15 06:13:50;;;;;;;31.88;19.27;;;10.50;99.90;;;;;;5089567;28;20068;-84
2023/05/15 06:16:17;;;;;;;28.13;17.40;;;10.60;99.90;;;;;;5072699;28;20538;-84
2023/05/15 06:18:43;;;;;;;28.38;17.73;;;10.70;99.90;;;;;;5050870;28;20044;-83
2023/05/15 06:21:10;;;;;;;31.98;18.17;;;10.70;99.90;;;;;;5053124;28;20393;-84
2023/05/15 06:23:37;;;;;;;29.67;18.05;;;10.70;99.90;;;;;;5040435;28;20205;-83
2023/05/15 06:26:04;;;;;;;27.90;16.83;;;10.70;99.90;;;;;;5057024;28;20041;-84
2023/05/15 06:28:30;;;;;;;29.38;18.27;;;10.70;99.90;;;;;;5040596;28;20080;-83
2023/05/15 06:30:57;;;;;;;28.08;17.63;;;10.80;99.90;;;;;;5040463;28;20080;-83
2023/05/15 06:33:24;;;;;;;28.83;17.88;;;10.80;99.90;;;;;;5056888;28;20720;-84
2023/05/15 06:35:52;;;;;;;29.65;17.88;;;10.90;99.90;;;;;;5040624;28;20049;-83
2023/05/15 06:38:19;;;;;;;27.95;18.10;;;11.00;99.90;;;;;;5056894;28;20045;-84
2023/05/15 06:40:46;;;;;;;35.58;18.90;;;11.00;99.90;;;;;;5056950;28;20045;-84
2023/05/15 06:43:12;;;;;;;30.63;18.33;;;11.00;99.90;;;;;;5053763;28;20045;-83
2023/05/15 06:45:39;;;;;;;29.33;18.27;;;11.00;99.90;;;;;;5076396;28;20040;-84
2023/05/15 06:48:06;;;;;;;27.80;18.38;;;11.20;99.90;;;;;;5060055;28;20114;-83
2023/05/15 06:50:32;;;;;;;26.13;17.60;;;11.30;99.90;;;;;;5093235;28;20032;-83
2023/05/15 06:53:00;;;;;;;26.10;17.52;;;11.30;99.90;;;;;;5076359;28;20036;-83
2023/05/15 06:55:26;;;;;;;23.95;17.00;;;11.50;99.90;;;;;;5076203;28;20048;-86
2023/05/15 06:57:54;;;;;;;26.45;17.55;;;11.60;99.90;;;;;;5076531;28;20110;-85
2023/05/15 07:00:21;;;;;;;23.08;16.52;;;11.60;99.90;;;;;;5060214;28;20041;-85
2023/05/15 07:02:48;;;;;;;23.23;16.10;;;11.60;99.90;;;;;;5058161;28;20124;-85
2023/05/15 07:05:14;;;;;;;25.20;16.85;;;11.70;99.90;;;;;;5092295;28;20401;-82
2023/05/15 07:07:41;;;;;;;24.17;16.42;;;11.70;99.90;;;;;;5059327;28;20048;-79
2023/05/15 07:10:08;;;;;;;22.95;16.58;;;11.80;99.90;;;;;;5075984;28;20124;-83
2023/05/15 07:12:35;;;;;;;25.90;17.02;;;11.90;99.90;;;;;;5075860;28;20071;-83
2023/05/15 07:15:03;;;;;;;24.92;16.45;;;12.10;99.90;;;;;;5059849;28;20101;-83
2023/05/15 07:17:31;;;;;;;27.67;14.98;;;12.20;99.90;;;;;;5096196;28;20430;-83
2023/05/15 07:19:58;;;;;;;24.27;15.48;;;12.30;99.90;;;;;;5055723;28;20064;-83
2023/05/15 07:22:27;;;;;;;22.77;15.00;;;12.40;99.90;;;;;;5072912;28;20068;-84
2023/05/15 07:24:54;;;;;;;22.77;14.60;;;12.50;99.90;;;;;;5092363;28;20040;-83
2023/05/15 07:27:20;;;;;;;20.95;13.75;;;12.60;99.90;;;;;;5075597;28;20077;-83
2023/05/15 07:29:47;;;;;;;20.73;14.32;;;12.70;99.90;;;;;;5075322;28;20123;-83
2023/05/15 07:32:14;;;;;;;17.13;12.43;;;12.90;99.90;;;;;;5058433;28;20085;-83
2023/05/15 07:34:41;;;;;;;18.77;12.32;;;13.00;99.90;;;;;;5057933;28;20041;-83
2023/05/15 07:37:08;;;;;;;20.95;12.30;;;13.20;99.90;;;;;;5071605;28;20036;-84
2023/05/15 07:39:35;;;;;;;19.13;11.65;;;13.30;99.90;;;;;;5038848;28;20075;-83
2023/05/15 07:42:02;;;;;;;19.02;11.30;;;13.40;99.90;;;;;;5054907;28;20135;-83
2023/05/15 07:44:28;;;;;;;15.43;10.60;;;13.60;99.90;;;;;;5073427;28;20041;-83
2023/05/15 07:46:55;;;;;;;15.20;9.85;;;13.60;99.90;;;;;;5074732;28;20063;-83
2023/05/15 07:49:22;;;;;;;14.18;9.65;;;13.70;99.90;;;;;;5105444;28;20443;-82
2023/05/15 07:51:49;;;;;;;15.13;10.23;;;13.80;99.90;;;;;;5053519;28;20041;-83
2023/05/15 07:54:15;;;;;;;12.48;9.43;;;13.80;99.90;;;;;;5070705;28;20047;-83
2023/05/15 07:56:42;;;;;;;15.63;10.55;;;13.80;99.90;;;;;;5054416;28;20052;-83
2023/05/15 07:59:09;;;;;;;13.52;9.25;;;13.90;99.90;;;;;;5057672;28;20040;-83
2023/05/15 08:01:36;;;;;;;13.00;9.23;;;14.00;99.90;;;;;;5052731;28;20045;-83
2023/05/15 08:04:07;;;;;;;14.98;9.05;;;14.10;99.90;;;;;;5071229;28;20045;-84
2023/05/15 08:06:36;;;;;;;11.82;8.70;;;14.30;99.90;;;;;;5087110;28;20095;-84
2023/05/15 08:09:03;;;;;;;15.88;9.25;;;14.40;99.90;;;;;;5059011;28;20041;-84
2023/05/15 08:11:30;;;;;;;12.38;8.20;;;14.50;99.90;;;;;;5070796;28;20037;-85
2023/05/15 08:13:57;;;;;;;14.00;7.78;;;14.60;99.90;;;;;;5054690;28;20047;-85
2023/05/15 08:16:24;;;;;;;9.75;7.07;;;14.70;99.90;;;;;;5037736;28;20041;-85
2023/05/15 08:18:57;;;;;;;12.10;7.88;;;14.80;99.90;;;;;;5054891;28;20041;-85
2023/05/15 08:21:23;;;;;;;12.63;7.70;;;14.80;99.90;;;;;;5072375;28;20041;-85
2023/05/15 08:23:50;;;;;;;13.05;7.30;;;15.00;99.90;;;;;;5038279;28;20047;-85
2023/05/15 08:26:17;;;;;;;11.82;7.72;;;14.90;99.90;;;;;;5038106;28;20135;-84
2023/05/15 08:28:44;;;;;;;10.35;7.65;;;15.00;99.90;;;;;;5040835;28;20412;-85
2023/05/15 08:31:10;;;;;;;14.23;7.75;;;15.10;99.90;;;;;;5058283;28;20043;-85
2023/05/15 08:33:37;;;;;;;11.30;8.20;;;15.20;99.90;;;;;;5058718;28;20059;-85
2023/05/15 08:36:04;;;;;;;12.55;8.00;;;15.30;99.90;;;;;;5089900;28;20107;-85
2023/05/15 08:38:31;;;;;;;12.23;8.15;;;15.30;99.90;;;;;;5053606;28;20041;-84
2023/05/15 08:41:06;;;;;;;12.32;7.50;;;15.50;99.90;;;;;;5038172;28;20052;-85
2023/05/15 08:43:35;;;;;;;10.48;7.57;;;15.50;99.90;;;;;;5070388;28;20123;-85
2023/05/15 08:46:02;;;;;;;10.27;7.20;;;15.70;99.90;;;;;;5086159;28;20501;-85
2023/05/15 08:48:30;;;;;;;14.93;8.07;;;15.70;99.90;;;;;;5055547;28;20053;-85
2023/05/15 08:50:57;;;;;;;11.20;7.78;;;15.80;99.90;;;;;;5037593;28;20063;-86
2023/05/15 08:53:24;;;;;;;10.93;7.55;;;15.80;99.90;;;;;;5053817;28;20033;-84
2023/05/15 08:55:51;;;;;;;11.63;7.57;;;15.90;99.90;;;;;;5070829;28;20098;-85
2023/05/15 08:58:21;;;;;;;13.32;7.75;;;15.90;99.90;;;;;;5065912;28;20040;-85
2023/05/15 09:00:49;;;;;;;12.00;7.70;;;16.00;99.90;;;;;;5058364;28;20531;-85
2023/05/15 09:03:17;;;;;;;10.25;7.28;;;15.90;99.90;;;;;;5107211;28;20040;-85
2023/05/15 09:05:45;;;;;;;13.07;7.85;;;15.90;99.90;;;;;;5089902;28;20128;-85
2023/05/15 09:08:14;;;;;;;11.98;7.25;;;15.90;99.90;;;;;;5082635;28;20037;-85
2023/05/15 09:10:41;;;;;;;10.30;7.72;;;16.00;99.90;;;;;;5053816;28;20041;-85
2023/05/15 09:13:10;;;;;;;11.05;7.38;;;16.00;99.90;;;;;;5054002;28;20045;-85
2023/05/15 09:15:37;;;;;;;12.95;8.23;;;16.10;99.90;;;;;;5053799;28;20066;-85
2023/05/15 09:18:06;;;;;;;12.57;7.65;;;16.20;99.90;;;;;;5086857;28;20041;-85
2023/05/15 09:20:35;;;;;;;13.88;7.95;;;16.30;99.90;;;;;;5087551;28;20079;-84
2023/05/15 09:23:04;;;;;;;12.63;8.20;;;16.50;99.90;;;;;;5076815;28;20516;-84
2023/05/15 09:25:39;;;;;;;11.82;7.78;;;16.50;99.90;;;;;;5053076;28;20071;-83
2023/05/15 09:28:08;;;;;;;14.90;7.78;;;16.60;99.90;;;;;;5053725;28;20040;-85
2023/05/15 09:30:40;;;;;;;11.10;8.07;;;16.70;99.90;;;;;;5069237;28;20040;-84
2023/05/15 09:33:08;;;;;;;11.15;8.15;;;16.80;99.90;;;;;;5053446;28;20041;-85
2023/05/15 09:35:39;;;;;;;13.10;8.15;;;16.80;99.90;;;;;;5069285;28;20128;-84
2023/05/15 09:38:11;;;;;;;11.45;7.47;;;16.80;99.90;;;;;;5053851;28;20049;-86
2023/05/15 09:40:41;;;;;;;11.55;7.40;;;16.90;99.90;;;;;;5087125;28;20408;-84
2023/05/15 09:43:11;;;;;;;10.60;7.43;;;16.90;99.90;;;;;;5073225;28;20048;-85
2023/05/15 09:45:38;;;;;;;13.40;8.80;;;16.80;99.90;;;;;;5056413;28;20044;-85
2023/05/15 09:48:06;;;;;;;15.90;9.38;;;16.80;99.90;;;;;;5056383;28;20052;-85
2023/05/15 09:50:34;;;;;;;12.80;9.13;;;16.70;99.90;;;;;;5073776;28;20136;-85
2023/05/15 09:53:02;;;;;;;15.20;9.60;;;16.90;99.90;;;;;;5052866;28;20131;-85
2023/05/15 09:55:31;;;;;;;13.52;9.52;;;16.90;99.90;;;;;;5068854;28;20404;-85
2023/05/15 09:58:12;;;;;;;14.82;8.82;;;17.10;99.90;;;;;;5085362;28;20120;-85
2023/05/15 10:00:40;;;;;;;12.73;8.95;;;17.20;99.90;;;;;;5064644;28;20037;-85
2023/05/15 10:03:08;;;;;;;12.88;8.60;;;17.30;99.90;;;;;;5068136;28;20102;-84
2023/05/15 10:05:36;;;;;;;13.98;9.73;;;17.30;99.90;;;;;;5053160;28;20041;-85
2023/05/15 10:08:03;;;;;;;13.18;9.82;;;17.50;99.90;;;;;;5069276;28;20037;-84
2023/05/15 10:10:31;;;;;;;13.38;8.68;;;17.40;99.90;;;;;;5073180;28;20036;-84
2023/05/15 10:13:02;;;;;;;10.48;7.55;;;17.40;99.90;;;;;;5052739;28;20045;-84
2023/05/15 10:15:29;;;;;;;13.23;8.65;;;17.50;99.90;;;;;;5085411;28;20072;-85
2023/05/15 10:17:55;;;;;;;14.18;8.52;;;17.60;99.90;;;;;;5053212;28;20076;-85
2023/05/15 10:20:24;;;;;;;9.52;7.32;;;17.70;99.90;;;;;;5053095;28;20060;-85
2023/05/15 10:22:54;;;;;;;9.98;6.53;;;17.80;99.90;;;;;;5085232;28;20077;-83
2023/05/15 10:25:49;;;;;;;10.98;7.25;;;17.90;99.90;;;;;;5085072;28;20132;-84
2023/05/15 10:28:17;;;;;;;12.43;7.50;;;17.80;99.90;;;;;;5068245;28;20128;-83
2023/05/15 10:30:45;;;;;;;11.38;8.00;;;17.90;99.90;;;;;;5052275;28;20049;-85
2023/05/15 10:33:12;;;;;;;9.60;7.80;;;17.80;99.90;;;;;;5036153;28;20072;-85
2023/05/15 10:35:40;;;;;;;10.18;7.93;;;17.90;99.90;;;;;;5068365;28;20041;-84
2023/05/15 10:38:08;;;;;;;11.80;7.60;;;18.00;99.90;;;;;;5085768;28;20493;-84
2023/05/15 10:40:36;;;;;;;13.95;8.68;;;18.10;99.90;;;;;;5068835;28;20066;-85
2023/05/15 10:43:05;;;;;;;12.07;8.20;;;18.20;99.90;;;;;;5105354;28;20028;-84
2023/05/15 10:45:34;;;;;;;13.65;8.00;;;18.50;99.90;;;;;;5105412;28;20408;-87
2023/05/15 10:48:01;;;;;;;11.35;8.32;;;18.40;99.90;;;;;;5105857;28;20519;-86
2023/05/15 10:50:28;;;;;;;9.88;8.00;;;18.50;99.90;;;;;;5072178;28;20056;-85
2023/05/15 10:52:55;;;;;;;10.38;7.38;;;18.40;99.90;;;;;;5056156;28;20051;-83
2023/05/15 10:55:22;;;;;;;13.30;6.95;;;18.40;99.90;;;;;;5052556;28;20041;-85
2023/05/15 10:57:49;;;;;;;8.93;6.90;;;18.20;99.90;;;;;;5084963;28;20132;-85
2023/05/15 11:00:22;;;;;;;9.38;6.47;;;18.20;99.90;;;;;;5053490;28;20099;-84
2023/05/15 11:02:55;;;;;;;14.05;6.70;;;18.30;99.90;;;;;;5079200;28;20056;-86
2023/05/15 11:05:23;;;;;;;10.82;6.80;;;18.20;99.90;;;;;;5075552;28;20040;-85
2023/05/15 11:08:14;;;;;;;8.75;6.30;;;18.30;99.90;;;;;;5085181;28;20421;-85
2023/05/15 11:10:41;;;;;;;10.85;6.60;;;18.30;99.90;;;;;;5071620;28;20400;-85
2023/05/15 11:13:08;;;;;;;10.93;6.20;;;18.30;99.90;;;;;;5049412;28;20037;-86
2023/05/15 11:15:53;;;;;;;8.65;5.97;;;18.20;99.90;;;;;;5075821;28;20127;-85
2023/05/15 11:18:20;;;;;;;8.95;5.55;;;18.20;99.90;;;;;;5122713;28;20049;-86
2023/05/15 11:20:50;;;;;;;10.00;5.80;;;18.10;99.90;;;;;;5039892;28;20067;-85
2023/05/15 11:23:20;;;;;;;8.50;5.68;;;18.20;99.90;;;;;;5098388;28;20040;-85
2023/05/15 11:25:53;;;;;;;7.93;5.25;;;18.10;99.90;;;;;;5088761;28;20045;-85
2023/05/15 11:28:21;;;;;;;7.38;5.13;;;18.20;99.90;;;;;;5109321;28;20074;-85
2023/05/15 11:30:51;;;;;;;8.57;5.90;;;18.30;99.90;;;;;;5088914;28;20044;-85
2023/05/15 11:33:19;;;;;;;10.95;6.05;;;18.30;99.90;;;;;;5108373;28;20036;-85
2023/05/15 11:35:47;;;;;;;9.75;5.68;;;18.50;99.90;;;;;;5108280;28;20869;-84
2023/05/15 11:38:38;;;;;;;8.13;5.15;;;18.40;99.90;;;;;;5075752;28;20113;-85
2023/05/15 11:41:17;;;;;;;8.05;5.55;;;18.40;99.90;;;;;;5074848;28;20041;-86
2023/05/15 11:43:45;;;;;;;9.05;5.60;;;18.40;99.90;;;;;;5103794;28;20040;-85
2023/05/15 11:46:13;;;;;;;8.15;4.78;;;18.50;99.90;;;;;;5091402;28;20102;-85
2023/05/15 11:48:41;;;;;;;9.40;6.28;;;18.60;99.90;;;;;;5043239;28;20032;-85
2023/05/15 11:51:23;;;;;;;10.20;5.50;;;18.70;99.90;;;;;;5071793;28;20469;-85
2023/05/15 11:53:52;;;;;;;9.15;4.95;;;18.70;99.90;;;;;;5108117;28;20032;-85
2023/05/15 11:56:23;;;;;;;8.73;5.60;;;18.70;99.90;;;;;;5101182;28;20056;-85
2023/05/15 11:58:51;;;;;;;12.90;5.70;;;18.90;99.90;;;;;;5059668;28;20041;-85
2023/05/15 12:01:18;;;;;;;9.15;6.70;;;18.90;99.90;;;;;;5101488;28;20128;-88
2023/05/15 12:03:47;;;;;;;8.98;6.57;;;18.70;99.90;;;;;;5059308;28;20079;-87
2023/05/15 12:06:15;;;;;;;9.90;6.50;;;18.70;99.90;;;;;;5076368;28;20461;-87
2023/05/15 12:08:41;;;;;;;8.40;5.30;;;18.60;99.90;;;;;;5059896;28;20090;-87
2023/05/15 12:11:08;;;;;;;7.85;5.20;;;18.80;99.90;;;;;;5092682;28;20041;-87
2023/05/15 12:13:35;;;;;;;7.88;5.78;;;18.90;99.90;;;;;;5091522;28;20029;-88
2023/05/15 12:16:03;;;;;;;9.80;5.80;;;18.70;99.90;;;;;;5075975;28;20044;-89
2023/05/15 12:18:31;;;;;;;8.20;5.45;;;18.70;99.90;;;;;;5076331;28;20037;-87
2023/05/15 12:20:58;;;;;;;8.73;6.13;;;18.40;99.90;;;;;;5076070;28;20110;-88
2023/05/15 12:23:27;;;;;;;10.00;5.93;;;18.20;99.90;;;;;;5076097;28;20620;-88
2023/05/15 12:25:58;;;;;;;10.13;6.00;;;18.40;99.90;;;;;;5092912;28;20049;-89
2023/05/15 12:28:26;;;;;;;9.63;6.50;;;18.20;99.90;;;;;;5095827;28;20069;-88
2023/05/15 12:30:53;;;;;;;9.38;6.40;;;18.20;99.90;;;;;;5071777;28;20047;-88
2023/05/15 12:33:20;;;;;;;8.98;6.30;;;18.20;99.90;;;;;;5056384;28;20043;-88
2023/05/15 12:35:54;;;;;;;7.68;6.15;;;18.20;99.90;;;;;;5055572;28;20041;-89
2023/05/15 12:38:23;;;;;;;8.38;6.03;;;18.00;99.90;;;;;;5072130;28;20037;-86